메인 페이지
METAR-TAF:

METAR-TAF

공항 :

Air Force Base Waterkloof

Waterkloof, 남아프리카공화국

위도: 25-50S, 경도: 028-13E, 고도: 1498m

현재 날씨관측

예보는 24분 전, 03:00시(UTC)에 발표되었습니다.
남남동4kt
온도 5°C
습도 33%
기압 1023 hPa

METAR: FAWK 250300Z AUTO 16004KT //// // ////// 05/M10 Q1023

시각: 05:24 (03:24 UTC)

예보

예보는 18 시간 24분 전, 09:00시(UTC)에 발표되었습니다.
예보 대상 시간: 24일 10시부터 24일 18시까지 (UTC)
여러 방향의 바람 3kt
시정 10km 이상
1500m 미만 상공 구름 및 적란운 없음
전환 중
24일 10시부터 24일 12시까지 (UTC)
10kt
전환 중
24일 11시부터 24일 13시까지 (UTC)
여러 방향의 바람 3kt

TAF: FAWK 240900Z 2410/2418 VRB03KT CAVOK TX24/2413Z TN14/2418Z BECMG 2410/2412 27010KT BECMG 2411/2413 VRB03KT

4,000개 이상의 공항 관측 자료 및 예보 (METAR 및 TAF 보고).

지도상에서 검색 가능한 기상관측소가 노란 점과 빨간 점으로 표시되어 있습니다.

기상관측소 명을 보려면 표시 위로 마우스를 이동하세요.

날씨 관측과 예보를 보려면 클릭하세요.

지도 변경 : 확대하려면 엑스 표시가 있는 녹색 버튼, 축소하려면 빼기 표시가 있는 녹색 버튼, 다음 페이지의 지도를 보려면 녹색 화살표를 클릭하세요.


METAR-TAF: